Главная страница
METAR-TAF:

METAR-TAF

Аэропорты :

Пигс-Пик, Свазиленд

широта: 25-58-04S, долгота: 31-15-03E, высота над уровнем моря: 1099 м

Текущие метеонаблюдения

Эта сводка был подготовлена 2 часа и 13 минут назад, в 20:00 UTC
Ветер 8 Узел от восточно-северо-восточный
Температура 23°C
Влажность 78%
Давление 1017 hPa

METAR: FDPP 042000Z AUTO 06008KT //// // ////// 23/19 Q1017

Время: 00:13 (22:13 UTC)


TAF: отсутствует

Метеонаблюдения и прогнозы для более 4000 аэропортов (сводки METAR и TAF).

Имеющиеся станции представлены на карте желтыми и красными точками.

Чтобы увидеть название станции, наведите на нее мышь.

Затем щелкните, чтобы увидеть метеонаблюдения и метеопрогнозы.

Управление картой: чтобы увеличить масштаб, щелкните зеленые кнопки с черным крестиком; чтобы уменьшить масштаб, щелкните зеленую кнопку с тире; для просмотра соседних карт щелкайте зеленые стрелки.


METAR-TAF: